»·PEaware :: N149CD KCMA-KSMX

N149CD :: KCMA-KSMX

FLIGHT INFORMATION

Flight Status: Arrived
Operator: Privately registered:
United States
More flights under this callsign
Pilot: Nathan E. (30132)
Aircraft: CESSNA 172 SKYHAWK
(C172)
More flights by this aircraft type
Origin: KCMA Camarillo
United States
Destination: KSMX Santa Maria Pub/Capt Hancock
United States
More flights between these airports :: More routes between these airports
Route: V25 RZS RZS286 KOAKS
File this flight plan on PilotEdge
Remarks: TEC route VTUP34
Altitude:
(Current/Filed)
8,000ft
Speed:
(Current/Filed)
110kts
Departed: 14-Sep-20 11:15 AM
Arrived: 14-Sep-20 12:03 PM
Distance/Time
Traveled:
79nm/0:48
Distance/Time
To Go:
Arrived

Flight Plot

Page will automatically refresh every two minutes.


Map Options




Map Legend


Flown Route
Filed Route
Departure Airport
Arrival Airport
Navaid (VOR, NDB)
Fix

Horizontal Profiles

Position Reports

Time Latitude Longitude Heading Altitude Ground
Speed
14-Sep-20 11:00 34.210350 -119.076468 90 79ft 0kts
14-Sep-20 11:01 34.210350 -119.076468 90 79ft 0kts
14-Sep-20 11:02 34.210350 -119.076468 90 79ft 0kts
14-Sep-20 11:03 34.210350 -119.076468 90 79ft 0kts
14-Sep-20 11:04 34.210350 -119.076468 90 79ft 0kts
14-Sep-20 11:05 34.210350 -119.076468 90 79ft 0kts
14-Sep-20 11:06 34.210350 -119.076468 90 79ft 0kts
14-Sep-20 11:07 34.210350 -119.076468 90 79ft 0kts
14-Sep-20 11:08 34.210350 -119.076468 90 79ft 0kts
14-Sep-20 11:09 34.210882 -119.078238 270 78ft 20kts
14-Sep-20 11:10 34.211443 -119.084476 41 74ft 12kts
14-Sep-20 11:11 34.212709 -119.084162 313 76ft 0kts
14-Sep-20 11:12 34.212709 -119.084162 313 76ft 0kts
14-Sep-20 11:13 34.212979 -119.084616 1 76ft 6kts
14-Sep-20 11:14 34.213654 -119.098693 267 331ft 77kts
14-Sep-20 11:15 34.211923 -119.123615 266 1227ft 75kts
14-Sep-20 11:16 34.210114 -119.148410 266 2072ft 75kts
14-Sep-20 11:17 34.208367 -119.173493 266 2890ft 74kts
14-Sep-20 11:18 34.206838 -119.198414 266 3656ft 74kts
14-Sep-20 11:19 34.205605 -119.223141 266 4369ft 74kts
14-Sep-20 11:20 34.204679 -119.248387 266 5049ft 75kts
14-Sep-20 11:21 34.204090 -119.273734 266 5707ft 76kts
14-Sep-20 11:22 34.212967 -119.296777 302 6333ft 80kts
14-Sep-20 11:23 34.226604 -119.318453 302 6929ft 82kts
14-Sep-20 11:24 34.240489 -119.340535 301 7498ft 83kts
14-Sep-20 11:25 34.254566 -119.362960 301 7991ft 90kts
14-Sep-20 11:26 34.272632 -119.391629 303 7999ft 110kts
14-Sep-20 11:27 34.291739 -119.421937 303 7962ft 112kts
14-Sep-20 11:28 34.310494 -119.451829 303 7962ft 112kts
14-Sep-20 11:29 34.325829 -119.485104 289 7745ft 118kts
14-Sep-20 11:30 34.338686 -119.522222 289 7244ft 120kts
14-Sep-20 11:31 34.351532 -119.559713 289 6742ft 121kts
14-Sep-20 11:32 34.364481 -119.597651 289 6240ft 122kts
14-Sep-20 11:33 34.377335 -119.635389 289 5962ft 117kts
14-Sep-20 11:34 34.389663 -119.671719 289 5963ft 117kts
14-Sep-20 11:35 34.402062 -119.708233 289 5963ft 117kts
14-Sep-20 11:36 34.414469 -119.744787 289 5963ft 117kts
14-Sep-20 11:38 34.426881 -119.781398 289 5963ft 117kts
14-Sep-20 11:39 34.439243 -119.817900 289 5964ft 117kts
14-Sep-20 11:40 34.451596 -119.854420 289 5966ft 117kts
14-Sep-20 11:41 34.463881 -119.890782 288 5968ft 116kts
14-Sep-20 11:42 34.476101 -119.926991 288 5971ft 116kts
14-Sep-20 11:43 34.488274 -119.963108 288 5975ft 115kts
14-Sep-20 11:44 34.500354 -119.998989 288 5979ft 114kts
14-Sep-20 11:45 34.512428 -120.034894 288 5796ft 118kts
14-Sep-20 11:46 34.524921 -120.071990 289 5297ft 118kts
14-Sep-20 11:47 34.542999 -120.105235 310 4795ft 120kts
14-Sep-20 11:48 34.566078 -120.134274 311 4393ft 117kts
14-Sep-20 11:49 34.588295 -120.161970 311 4390ft 114kts
14-Sep-20 11:50 34.610364 -120.189467 311 4390ft 114kts
14-Sep-20 11:51 34.632762 -120.217374 311 4166ft 119kts
14-Sep-20 11:52 34.655896 -120.246198 311 3666ft 119kts
14-Sep-20 11:53 34.678221 -120.274083 311 3493ft 112kts
14-Sep-20 11:54 34.699996 -120.301300 311 3495ft 112kts
14-Sep-20 11:55 34.722244 -120.327736 324 3412ft 115kts
14-Sep-20 11:55 34.745454 -120.344394 328 2995ft 115kts
14-Sep-20 11:57 34.777397 -120.366357 329 2512ft 106kts
14-Sep-20 11:58 34.802200 -120.383431 330 2515ft 104kts
14-Sep-20 11:59 34.829138 -120.401911 330 1949ft 113kts
14-Sep-20 11:59 34.850986 -120.416945 330 1389ft 105kts
14-Sep-20 12:00 34.872450 -120.431728 330 838ft 72kts
14-Sep-20 12:02 34.891363 -120.444177 316 333ft 61kts
14-Sep-20 12:02 34.897471 -120.450283 1 265ft 11kts
14-Sep-20 12:03 34.899357 -120.450034 134 265ft 0kts
14-Sep-20 12:04 34.899355 -120.450031 134 265ft 0kts

Navigation Log

Ident Type
Flight plan parsing failed, navigation log unavailable